Date,TemperatureHighF,TemperatureAvgF,TemperatureLowF,DewpointHighF,DewpointAvgF,DewpointLowF,HumidityHigh,HumidityAvg,HumidityLow,PressureMaxIn,PressureMinIn,WindSpeedMaxMPH,WindSpeedAvgMPH,GustSpeedMaxMPH,PrecipitationSumIn
2013-7-1,67,64,62,66,63,61,98,96,90,30.00,29.84,3,0,4,0.33
2013-7-2,78,67,60,71,65,60,99,92,76,30.05,29.94,6,0,7,0.02
2013-7-3,87,74,65,76,69,64,99,88,59,30.15,30.03,6,0,10,0.34
2013-7-4,82,72,67,74,69,67,99,90,70,30.15,30.08,6,0,9,0.77
2013-7-5,80,72,68,74,69,67,99,92,73,30.11,30.06,8,0,13,0.19
2013-7-6,88,74,67,76,70,66,99,88,63,30.13,29.99,6,0,7,0.13
2013-7-7,78,72,67,72,68,64,98,89,73,30.05,29.95,7,0,11,0.01
2013-7-8,85,73,66,74,68,64,96,84,62,30.06,29.98,6,0,7,0.00
2013-7-9,85,73,68,78,71,67,98,93,75,30.02,29.89,6,0,12,0.46
2013-7-10,88,73,66,78,70,65,98,93,67,29.90,29.71,11,1,13,1.38
2013-7-11,76,66,58,66,61,57,99,86,56,30.00,29.86,6,0,8,0.02
2013-7-12,80,67,56,69,61,55,99,83,51,30.13,30.00,5,0,7,0.00
2013-7-13,78,68,59,71,65,57,97,88,75,30.22,30.10,5,0,6,0.00
2013-7-14,88,75,65,78,70,64,98,86,57,30.26,30.21,5,0,6,0.00
2013-7-15,91,78,68,80,73,67,98,86,63,30.28,30.22,5,0,6,0.00
2013-7-16,92,78,68,81,73,68,99,85,61,30.27,30.19,5,0,7,0.00
2013-7-17,93,79,70,80,74,69,99,85,61,30.24,30.11,8,0,9,0.00
2013-7-18,94,80,72,81,74,71,98,83,57,30.12,29.95,5,0,9,0.00
2013-7-19,91,81,73,79,74,67,93,80,62,29.96,29.73,12,1,13,0.00
2013-7-20,78,70,65,74,68,64,98,93,82,29.88,29.71,7,0,10,0.94
2013-7-21,84,70,62,73,65,62,100,85,58,29.95,29.88,7,0,8,0.00
2013-7-22,79,68,60,73,66,59,99,92,76,29.94,29.74,5,0,5,0.43
2013-7-23,82,69,62,73,67,60,99,93,69,29.76,29.62,6,0,10,0.46
2013-7-24,68,60,52,60,54,51,96,83,56,30.03,29.76,7,0,10,0.11
2013-7-25,75,60,48,60,53,47,97,80,53,30.11,30.02,7,0,8,0.01
2013-7-26,80,65,53,64,58,51,96,80,56,30.10,29.96,5,0,7,0.00
2013-7-27,69,64,58,66,62,57,98,92,82,29.97,29.79,6,0,8,0.01
2013-7-28,70,63,57,63,57,52,98,83,55,29.99,29.80,9,0,9,0.00
2013-7-29,73,61,56,59,55,53,95,81,55,30.17,29.98,9,0,9,0.01
2013-7-30,77,63,53,65,58,52,100,85,59,30.23,30.14,9,0,9,0.01
2013-7-31,81,67,56,68,60,54,97,82,52,30.15,29.90,6,0,7,0.00